sensor_id;sensor_type;location;lat;lon;timestamp;P1;durP1;ratioP1;P2;durP2;ratioP2
19285;SDS011;9776;50.798;6.430;2023-08-17T00:01:05;11.00;;;8.07;;
19285;SDS011;9776;50.798;6.430;2023-08-17T00:03:32;11.55;;;7.43;;
19285;SDS011;9776;50.798;6.430;2023-08-17T00:05:58;10.00;;;8.13;;
19285;SDS011;9776;50.798;6.430;2023-08-17T00:08:26;11.63;;;8.07;;
19285;SDS011;9776;50.798;6.430;2023-08-17T00:10:53;12.40;;;8.43;;
19285;SDS011;9776;50.798;6.430;2023-08-17T00:13:19;12.18;;;8.30;;
19285;SDS011;9776;50.798;6.430;2023-08-17T00:15:46;10.52;;;7.90;;
19285;SDS011;9776;50.798;6.430;2023-08-17T00:18:13;11.77;;;8.55;;
19285;SDS011;9776;50.798;6.430;2023-08-17T00:20:39;13.02;;;8.50;;
19285;SDS011;9776;50.798;6.430;2023-08-17T00:23:06;10.63;;;8.00;;
19285;SDS011;9776;50.798;6.430;2023-08-17T00:25:34;11.75;;;8.48;;
19285;SDS011;9776;50.798;6.430;2023-08-17T00:28:00;10.88;;;8.70;;
19285;SDS011;9776;50.798;6.430;2023-08-17T00:30:27;12.35;;;8.38;;
19285;SDS011;9776;50.798;6.430;2023-08-17T00:32:54;10.85;;;7.93;;
19285;SDS011;9776;50.798;6.430;2023-08-17T00:35:20;11.70;;;8.15;;
19285;SDS011;9776;50.798;6.430;2023-08-17T00:37:47;12.15;;;7.78;;
19285;SDS011;9776;50.798;6.430;2023-08-17T00:40:13;11.38;;;7.63;;
19285;SDS011;9776;50.798;6.430;2023-08-17T00:42:42;10.32;;;6.95;;
19285;SDS011;9776;50.798;6.430;2023-08-17T00:45:08;11.13;;;7.40;;
19285;SDS011;9776;50.798;6.430;2023-08-17T00:47:35;10.48;;;7.00;;
19285;SDS011;9776;50.798;6.430;2023-08-17T00:50:03;9.85;;;7.07;;
19285;SDS011;9776;50.798;6.430;2023-08-17T00:52:30;8.70;;;7.03;;
19285;SDS011;9776;50.798;6.430;2023-08-17T00:54:59;12.85;;;7.15;;
19285;SDS011;9776;50.798;6.430;2023-08-17T00:57:27;12.43;;;7.13;;
19285;SDS011;9776;50.798;6.430;2023-08-17T00:59:55;10.20;;;6.68;;
19285;SDS011;9776;50.798;6.430;2023-08-17T01:02:22;11.30;;;6.90;;
19285;SDS011;9776;50.798;6.430;2023-08-17T01:04:49;11.15;;;6.60;;
19285;SDS011;9776;50.798;6.430;2023-08-17T01:07:16;9.27;;;6.95;;
19285;SDS011;9776;50.798;6.430;2023-08-17T01:09:42;8.98;;;7.28;;
19285;SDS011;9776;50.798;6.430;2023-08-17T01:12:12;8.32;;;6.82;;
19285;SDS011;9776;50.798;6.430;2023-08-17T01:14:46;9.90;;;7.18;;
19285;SDS011;9776;50.798;6.430;2023-08-17T01:17:21;10.93;;;7.70;;
19285;SDS011;9776;50.798;6.430;2023-08-17T01:19:51;12.40;;;7.47;;
19285;SDS011;9776;50.798;6.430;2023-08-17T01:22:20;11.23;;;7.25;;
19285;SDS011;9776;50.798;6.430;2023-08-17T01:24:49;9.15;;;7.18;;
19285;SDS011;9776;50.798;6.430;2023-08-17T01:27:22;11.30;;;7.88;;
19285;SDS011;9776;50.798;6.430;2023-08-17T01:29:48;11.70;;;7.15;;
19285;SDS011;9776;50.798;6.430;2023-08-17T01:32:16;10.52;;;7.90;;
19285;SDS011;9776;50.798;6.430;2023-08-17T01:34:49;9.65;;;7.75;;
19285;SDS011;9776;50.798;6.430;2023-08-17T01:37:20;11.40;;;7.90;;
19285;SDS011;9776;50.798;6.430;2023-08-17T01:39:52;10.13;;;7.70;;
19285;SDS011;9776;50.798;6.430;2023-08-17T01:42:22;9.65;;;7.45;;
19285;SDS011;9776;50.798;6.430;2023-08-17T01:44:50;14.13;;;8.02;;
19285;SDS011;9776;50.798;6.430;2023-08-17T01:47:19;11.20;;;8.38;;
19285;SDS011;9776;50.798;6.430;2023-08-17T01:49:46;10.10;;;8.25;;
19285;SDS011;9776;50.798;6.430;2023-08-17T01:52:13;12.02;;;8.00;;
19285;SDS011;9776;50.798;6.430;2023-08-17T01:54:40;11.60;;;8.20;;
19285;SDS011;9776;50.798;6.430;2023-08-17T01:57:08;13.50;;;8.52;;
19285;SDS011;9776;50.798;6.430;2023-08-17T01:59:34;10.90;;;8.35;;
19285;SDS011;9776;50.798;6.430;2023-08-17T02:02:01;13.80;;;8.43;;
19285;SDS011;9776;50.798;6.430;2023-08-17T02:04:28;12.10;;;8.27;;
19285;SDS011;9776;50.798;6.430;2023-08-17T02:06:54;11.07;;;8.73;;
19285;SDS011;9776;50.798;6.430;2023-08-17T02:09:21;11.27;;;8.57;;
19285;SDS011;9776;50.798;6.430;2023-08-17T02:11:47;13.02;;;8.20;;
19285;SDS011;9776;50.798;6.430;2023-08-17T02:14:15;12.95;;;8.00;;
19285;SDS011;9776;50.798;6.430;2023-08-17T02:16:42;12.40;;;8.43;;
19285;SDS011;9776;50.798;6.430;2023-08-17T02:19:08;10.13;;;7.55;;
19285;SDS011;9776;50.798;6.430;2023-08-17T02:21:35;11.88;;;8.15;;
19285;SDS011;9776;50.798;6.430;2023-08-17T02:24:02;11.85;;;7.68;;
19285;SDS011;9776;50.798;6.430;2023-08-17T02:26:29;9.95;;;7.50;;
19285;SDS011;9776;50.798;6.430;2023-08-17T02:28:56;10.43;;;7.22;;
19285;SDS011;9776;50.798;6.430;2023-08-17T02:31:24;10.25;;;8.30;;
19285;SDS011;9776;50.798;6.430;2023-08-17T02:33:50;9.48;;;7.40;;
19285;SDS011;9776;50.798;6.430;2023-08-17T02:36:17;10.70;;;7.40;;
19285;SDS011;9776;50.798;6.430;2023-08-17T02:38:43;10.32;;;7.57;;
19285;SDS011;9776;50.798;6.430;2023-08-17T02:41:10;11.02;;;7.78;;
19285;SDS011;9776;50.798;6.430;2023-08-17T02:43:37;12.02;;;7.60;;
19285;SDS011;9776;50.798;6.430;2023-08-17T02:46:03;10.10;;;7.72;;
19285;SDS011;9776;50.798;6.430;2023-08-17T02:48:33;9.45;;;7.70;;
19285;SDS011;9776;50.798;6.430;2023-08-17T02:51:00;9.57;;;7.70;;
19285;SDS011;9776;50.798;6.430;2023-08-17T02:53:27;11.57;;;8.15;;
19285;SDS011;9776;50.798;6.430;2023-08-17T02:55:53;9.48;;;7.82;;
19285;SDS011;9776;50.798;6.430;2023-08-17T02:58:20;12.07;;;8.93;;
19285;SDS011;9776;50.798;6.430;2023-08-17T03:00:46;11.88;;;8.65;;
19285;SDS011;9776;50.798;6.430;2023-08-17T03:03:13;11.88;;;8.75;;
19285;SDS011;9776;50.798;6.430;2023-08-17T03:05:41;10.70;;;9.20;;
19285;SDS011;9776;50.798;6.430;2023-08-17T03:08:07;12.25;;;9.10;;
19285;SDS011;9776;50.798;6.430;2023-08-17T03:10:34;13.55;;;9.75;;
19285;SDS011;9776;50.798;6.430;2023-08-17T03:13:01;11.23;;;9.13;;
19285;SDS011;9776;50.798;6.430;2023-08-17T03:15:27;13.43;;;9.23;;
19285;SDS011;9776;50.798;6.430;2023-08-17T03:17:54;14.55;;;9.73;;
19285;SDS011;9776;50.798;6.430;2023-08-17T03:20:21;12.98;;;9.88;;
19285;SDS011;9776;50.798;6.430;2023-08-17T03:22:49;12.13;;;9.25;;
19285;SDS011;9776;50.798;6.430;2023-08-17T03:25:15;15.82;;;9.75;;
19285;SDS011;9776;50.798;6.430;2023-08-17T03:27:43;14.15;;;10.27;;
19285;SDS011;9776;50.798;6.430;2023-08-17T03:30:10;13.68;;;9.93;;
19285;SDS011;9776;50.798;6.430;2023-08-17T03:32:37;12.82;;;9.90;;
19285;SDS011;9776;50.798;6.430;2023-08-17T03:35:04;14.40;;;10.05;;
19285;SDS011;9776;50.798;6.430;2023-08-17T03:37:31;15.57;;;10.38;;
19285;SDS011;9776;50.798;6.430;2023-08-17T03:39:59;15.70;;;10.43;;
19285;SDS011;9776;50.798;6.430;2023-08-17T03:42:26;14.75;;;10.88;;
19285;SDS011;9776;50.798;6.430;2023-08-17T03:44:53;14.52;;;10.90;;
19285;SDS011;9776;50.798;6.430;2023-08-17T03:47:19;15.32;;;11.25;;
19285;SDS011;9776;50.798;6.430;2023-08-17T03:49:46;14.00;;;10.80;;
19285;SDS011;9776;50.798;6.430;2023-08-17T03:52:13;13.52;;;10.52;;
19285;SDS011;9776;50.798;6.430;2023-08-17T03:54:39;16.67;;;11.40;;
19285;SDS011;9776;50.798;6.430;2023-08-17T03:57:07;18.60;;;11.15;;
19285;SDS011;9776;50.798;6.430;2023-08-17T03:59:34;15.15;;;11.18;;
19285;SDS011;9776;50.798;6.430;2023-08-17T04:02:00;15.40;;;11.40;;
19285;SDS011;9776;50.798;6.430;2023-08-17T04:04:27;14.13;;;11.27;;
19285;SDS011;9776;50.798;6.430;2023-08-17T04:06:54;17.33;;;12.48;;
19285;SDS011;9776;50.798;6.430;2023-08-17T04:09:20;16.08;;;12.10;;
19285;SDS011;9776;50.798;6.430;2023-08-17T04:11:47;17.25;;;11.63;;
19285;SDS011;9776;50.798;6.430;2023-08-17T04:14:15;18.52;;;11.85;;
19285;SDS011;9776;50.798;6.430;2023-08-17T04:16:41;17.85;;;12.25;;
19285;SDS011;9776;50.798;6.430;2023-08-17T04:19:08;16.58;;;11.23;;
19285;SDS011;9776;50.798;6.430;2023-08-17T04:21:34;15.73;;;11.13;;
19285;SDS011;9776;50.798;6.430;2023-08-17T04:24:01;14.93;;;11.38;;
19285;SDS011;9776;50.798;6.430;2023-08-17T04:26:28;13.63;;;11.18;;
19285;SDS011;9776;50.798;6.430;2023-08-17T04:28:55;16.88;;;11.70;;
19285;SDS011;9776;50.798;6.430;2023-08-17T04:31:23;15.80;;;11.95;;
19285;SDS011;9776;50.798;6.430;2023-08-17T04:33:50;15.75;;;10.93;;
19285;SDS011;9776;50.798;6.430;2023-08-17T04:36:17;16.73;;;11.70;;
19285;SDS011;9776;50.798;6.430;2023-08-17T04:38:44;14.85;;;10.85;;
19285;SDS011;9776;50.798;6.430;2023-08-17T04:41:11;15.88;;;11.38;;
19285;SDS011;9776;50.798;6.430;2023-08-17T04:43:37;13.93;;;10.35;;
19285;SDS011;9776;50.798;6.430;2023-08-17T04:46:04;16.60;;;10.85;;
19285;SDS011;9776;50.798;6.430;2023-08-17T04:48:32;16.52;;;10.88;;
19285;SDS011;9776;50.798;6.430;2023-08-17T04:50:58;14.30;;;9.70;;
19285;SDS011;9776;50.798;6.430;2023-08-17T04:53:25;12.02;;;9.98;;
19285;SDS011;9776;50.798;6.430;2023-08-17T04:55:52;14.07;;;9.60;;
19285;SDS011;9776;50.798;6.430;2023-08-17T04:58:18;13.07;;;9.65;;
19285;SDS011;9776;50.798;6.430;2023-08-17T05:00:45;13.10;;;9.88;;
19285;SDS011;9776;50.798;6.430;2023-08-17T05:03:12;14.65;;;10.32;;
19285;SDS011;9776;50.798;6.430;2023-08-17T05:05:40;13.98;;;10.10;;
19285;SDS011;9776;50.798;6.430;2023-08-17T05:08:07;14.38;;;9.82;;
19285;SDS011;9776;50.798;6.430;2023-08-17T05:10:34;14.77;;;9.55;;
19285;SDS011;9776;50.798;6.430;2023-08-17T05:13:00;13.40;;;9.63;;
19285;SDS011;9776;50.798;6.430;2023-08-17T05:15:27;15.70;;;9.85;;
19285;SDS011;9776;50.798;6.430;2023-08-17T05:17:53;14.82;;;10.35;;
19285;SDS011;9776;50.798;6.430;2023-08-17T05:20:20;12.60;;;9.70;;
19285;SDS011;9776;50.798;6.430;2023-08-17T05:22:48;13.40;;;10.05;;
19285;SDS011;9776;50.798;6.430;2023-08-17T05:25:15;13.98;;;8.88;;
19285;SDS011;9776;50.798;6.430;2023-08-17T05:27:41;13.75;;;8.90;;
19285;SDS011;9776;50.798;6.430;2023-08-17T05:30:08;14.07;;;9.13;;
19285;SDS011;9776;50.798;6.430;2023-08-17T05:32:35;12.55;;;8.70;;
19285;SDS011;9776;50.798;6.430;2023-08-17T05:35:02;14.18;;;8.70;;
19285;SDS011;9776;50.798;6.430;2023-08-17T05:37:29;11.45;;;8.43;;
19285;SDS011;9776;50.798;6.430;2023-08-17T05:39:57;14.27;;;8.95;;
19285;SDS011;9776;50.798;6.430;2023-08-17T05:42:23;12.05;;;8.52;;
19285;SDS011;9776;50.798;6.430;2023-08-17T05:44:50;14.38;;;8.88;;
19285;SDS011;9776;50.798;6.430;2023-08-17T05:47:17;13.80;;;9.48;;
19285;SDS011;9776;50.798;6.430;2023-08-17T05:49:44;13.73;;;8.80;;
19285;SDS011;9776;50.798;6.430;2023-08-17T05:52:11;12.05;;;9.27;;
19285;SDS011;9776;50.798;6.430;2023-08-17T05:54:38;13.02;;;9.25;;
19285;SDS011;9776;50.798;6.430;2023-08-17T05:57:06;11.68;;;8.68;;
19285;SDS011;9776;50.798;6.430;2023-08-17T05:59:33;12.45;;;8.57;;
19285;SDS011;9776;50.798;6.430;2023-08-17T06:02:00;12.35;;;8.90;;
19285;SDS011;9776;50.798;6.430;2023-08-17T06:04:26;13.82;;;8.50;;
19285;SDS011;9776;50.798;6.430;2023-08-17T06:06:53;14.82;;;8.90;;
19285;SDS011;9776;50.798;6.430;2023-08-17T06:09:20;18.65;;;9.77;;
19285;SDS011;9776;50.798;6.430;2023-08-17T06:11:47;13.57;;;8.75;;
19285;SDS011;9776;50.798;6.430;2023-08-17T06:14:15;16.65;;;9.23;;
19285;SDS011;9776;50.798;6.430;2023-08-17T06:16:41;12.23;;;8.73;;
19285;SDS011;9776;50.798;6.430;2023-08-17T06:19:08;15.90;;;9.68;;
19285;SDS011;9776;50.798;6.430;2023-08-17T06:21:35;14.68;;;8.68;;
19285;SDS011;9776;50.798;6.430;2023-08-17T06:24:01;17.13;;;10.38;;
19285;SDS011;9776;50.798;6.430;2023-08-17T06:26:29;16.50;;;10.75;;
19285;SDS011;9776;50.798;6.430;2023-08-17T06:28:56;15.98;;;10.88;;
19285;SDS011;9776;50.798;6.430;2023-08-17T06:31:24;19.38;;;10.93;;
19285;SDS011;9776;50.798;6.430;2023-08-17T06:33:52;18.13;;;11.23;;
19285;SDS011;9776;50.798;6.430;2023-08-17T06:36:19;20.48;;;11.95;;
19285;SDS011;9776;50.798;6.430;2023-08-17T06:38:45;20.38;;;11.88;;
19285;SDS011;9776;50.798;6.430;2023-08-17T06:41:12;18.17;;;11.43;;
19285;SDS011;9776;50.798;6.430;2023-08-17T06:43:39;21.67;;;11.65;;
19285;SDS011;9776;50.798;6.430;2023-08-17T06:46:05;18.63;;;11.82;;
19285;SDS011;9776;50.798;6.430;2023-08-17T06:48:33;20.42;;;12.10;;
19285;SDS011;9776;50.798;6.430;2023-08-17T06:51:00;20.17;;;11.40;;
19285;SDS011;9776;50.798;6.430;2023-08-17T06:53:27;21.52;;;13.35;;
19285;SDS011;9776;50.798;6.430;2023-08-17T06:55:54;19.92;;;12.05;;
19285;SDS011;9776;50.798;6.430;2023-08-17T06:58:21;22.83;;;12.75;;
19285;SDS011;9776;50.798;6.430;2023-08-17T07:00:47;25.10;;;12.50;;
19285;SDS011;9776;50.798;6.430;2023-08-17T07:03:14;20.25;;;11.40;;
19285;SDS011;9776;50.798;6.430;2023-08-17T07:05:42;18.02;;;11.48;;
19285;SDS011;9776;50.798;6.430;2023-08-17T07:08:09;20.73;;;11.95;;
19285;SDS011;9776;50.798;6.430;2023-08-17T07:10:36;22.65;;;12.18;;
19285;SDS011;9776;50.798;6.430;2023-08-17T07:13:02;21.80;;;12.13;;
19285;SDS011;9776;50.798;6.430;2023-08-17T07:15:29;18.75;;;12.07;;
19285;SDS011;9776;50.798;6.430;2023-08-17T07:17:56;22.73;;;13.07;;
19285;SDS011;9776;50.798;6.430;2023-08-17T07:20:23;18.35;;;11.80;;
19285;SDS011;9776;50.798;6.430;2023-08-17T07:22:51;21.27;;;12.60;;
19285;SDS011;9776;50.798;6.430;2023-08-17T07:25:17;21.95;;;12.75;;
19285;SDS011;9776;50.798;6.430;2023-08-17T07:27:44;22.95;;;12.90;;
19285;SDS011;9776;50.798;6.430;2023-08-17T07:30:11;24.10;;;13.13;;
19285;SDS011;9776;50.798;6.430;2023-08-17T07:32:38;25.42;;;13.18;;
19285;SDS011;9776;50.798;6.430;2023-08-17T07:35:05;25.42;;;13.77;;
19285;SDS011;9776;50.798;6.430;2023-08-17T07:37:32;21.65;;;13.25;;
19285;SDS011;9776;50.798;6.430;2023-08-17T07:40:00;23.73;;;13.55;;
19285;SDS011;9776;50.798;6.430;2023-08-17T07:42:29;22.88;;;13.73;;
19285;SDS011;9776;50.798;6.430;2023-08-17T07:44:55;24.40;;;13.55;;
19285;SDS011;9776;50.798;6.430;2023-08-17T07:47:22;23.27;;;14.18;;
19285;SDS011;9776;50.798;6.430;2023-08-17T07:49:48;24.60;;;13.75;;
19285;SDS011;9776;50.798;6.430;2023-08-17T07:52:15;22.90;;;13.98;;
19285;SDS011;9776;50.798;6.430;2023-08-17T07:54:42;24.33;;;13.57;;
19285;SDS011;9776;50.798;6.430;2023-08-17T07:57:10;23.27;;;13.43;;
19285;SDS011;9776;50.798;6.430;2023-08-17T07:59:37;28.10;;;13.88;;
19285;SDS011;9776;50.798;6.430;2023-08-17T08:02:03;25.38;;;13.20;;
19285;SDS011;9776;50.798;6.430;2023-08-17T08:04:30;26.67;;;13.43;;
19285;SDS011;9776;50.798;6.430;2023-08-17T08:06:57;21.52;;;12.43;;
19285;SDS011;9776;50.798;6.430;2023-08-17T08:09:23;22.98;;;13.20;;
19285;SDS011;9776;50.798;6.430;2023-08-17T08:11:50;23.25;;;13.05;;
19285;SDS011;9776;50.798;6.430;2023-08-17T08:14:18;22.05;;;13.48;;
19285;SDS011;9776;50.798;6.430;2023-08-17T08:16:45;25.02;;;13.18;;
19285;SDS011;9776;50.798;6.430;2023-08-17T08:19:12;30.33;;;14.02;;
19285;SDS011;9776;50.798;6.430;2023-08-17T08:21:38;22.08;;;12.85;;
19285;SDS011;9776;50.798;6.430;2023-08-17T08:24:05;22.02;;;13.32;;
19285;SDS011;9776;50.798;6.430;2023-08-17T08:26:32;19.27;;;11.98;;
19285;SDS011;9776;50.798;6.430;2023-08-17T08:28:59;23.13;;;13.05;;
19285;SDS011;9776;50.798;6.430;2023-08-17T08:31:27;20.83;;;12.30;;
19285;SDS011;9776;50.798;6.430;2023-08-17T08:33:54;25.75;;;12.85;;
19285;SDS011;9776;50.798;6.430;2023-08-17T08:36:20;26.23;;;14.05;;
19285;SDS011;9776;50.798;6.430;2023-08-17T08:38:47;23.92;;;13.50;;
19285;SDS011;9776;50.798;6.430;2023-08-17T08:41:14;23.73;;;12.52;;
19285;SDS011;9776;50.798;6.430;2023-08-17T08:43:40;22.15;;;12.55;;
19285;SDS011;9776;50.798;6.430;2023-08-17T08:46:07;21.48;;;12.40;;
19285;SDS011;9776;50.798;6.430;2023-08-17T08:48:36;25.45;;;13.45;;
19285;SDS011;9776;50.798;6.430;2023-08-17T08:51:07;23.55;;;12.75;;
19285;SDS011;9776;50.798;6.430;2023-08-17T08:53:36;23.02;;;13.77;;
19285;SDS011;9776;50.798;6.430;2023-08-17T08:56:04;27.10;;;13.80;;
19285;SDS011;9776;50.798;6.430;2023-08-17T08:58:36;25.23;;;13.98;;
19285;SDS011;9776;50.798;6.430;2023-08-17T09:01:06;21.20;;;13.20;;
19285;SDS011;9776;50.798;6.430;2023-08-17T09:03:35;22.92;;;13.30;;
19285;SDS011;9776;50.798;6.430;2023-08-17T09:06:02;23.65;;;13.43;;
19285;SDS011;9776;50.798;6.430;2023-08-17T09:08:30;22.98;;;13.07;;
19285;SDS011;9776;50.798;6.430;2023-08-17T09:10:57;22.17;;;13.30;;
19285;SDS011;9776;50.798;6.430;2023-08-17T09:13:24;22.90;;;13.60;;
19285;SDS011;9776;50.798;6.430;2023-08-17T09:15:50;30.05;;;16.60;;
19285;SDS011;9776;50.798;6.430;2023-08-17T09:18:17;23.05;;;13.70;;
19285;SDS011;9776;50.798;6.430;2023-08-17T09:20:47;24.10;;;13.55;;
19285;SDS011;9776;50.798;6.430;2023-08-17T09:23:14;38.70;;;24.13;;
19285;SDS011;9776;50.798;6.430;2023-08-17T09:25:42;27.05;;;16.20;;
19285;SDS011;9776;50.798;6.430;2023-08-17T09:28:10;21.77;;;14.30;;
19285;SDS011;9776;50.798;6.430;2023-08-17T09:30:51;26.13;;;14.10;;
19285;SDS011;9776;50.798;6.430;2023-08-17T09:33:22;25.52;;;13.75;;
19285;SDS011;9776;50.798;6.430;2023-08-17T09:35:51;25.08;;;13.93;;
19285;SDS011;9776;50.798;6.430;2023-08-17T09:38:19;24.23;;;13.65;;
19285;SDS011;9776;50.798;6.430;2023-08-17T09:40:46;24.98;;;14.55;;
19285;SDS011;9776;50.798;6.430;2023-08-17T09:43:13;27.17;;;13.25;;
19285;SDS011;9776;50.798;6.430;2023-08-17T09:45:40;23.02;;;13.68;;
19285;SDS011;9776;50.798;6.430;2023-08-17T09:48:09;24.08;;;13.63;;
19285;SDS011;9776;50.798;6.430;2023-08-17T09:50:36;23.23;;;13.15;;
19285;SDS011;9776;50.798;6.430;2023-08-17T09:53:04;22.02;;;12.68;;
19285;SDS011;9776;50.798;6.430;2023-08-17T09:55:31;22.13;;;13.48;;
19285;SDS011;9776;50.798;6.430;2023-08-17T09:57:59;21.67;;;12.40;;
19285;SDS011;9776;50.798;6.430;2023-08-17T10:00:26;22.05;;;13.10;;
19285;SDS011;9776;50.798;6.430;2023-08-17T10:02:53;25.73;;;13.85;;
19285;SDS011;9776;50.798;6.430;2023-08-17T10:05:24;23.88;;;14.15;;
19285;SDS011;9776;50.798;6.430;2023-08-17T10:07:56;23.30;;;14.20;;
19285;SDS011;9776;50.798;6.430;2023-08-17T10:10:25;23.80;;;13.38;;
19285;SDS011;9776;50.798;6.430;2023-08-17T10:12:59;25.27;;;14.05;;
19285;SDS011;9776;50.798;6.430;2023-08-17T10:15:32;20.80;;;13.27;;
19285;SDS011;9776;50.798;6.430;2023-08-17T10:18:04;23.52;;;14.32;;
19285;SDS011;9776;50.798;6.430;2023-08-17T10:20:35;22.13;;;13.38;;
19285;SDS011;9776;50.798;6.430;2023-08-17T10:23:07;25.75;;;14.93;;
19285;SDS011;9776;50.798;6.430;2023-08-17T10:25:42;28.70;;;16.20;;
19285;SDS011;9776;50.798;6.430;2023-08-17T10:28:08;28.92;;;16.02;;
19285;SDS011;9776;50.798;6.430;2023-08-17T10:30:36;28.20;;;15.23;;
19285;SDS011;9776;50.798;6.430;2023-08-17T10:33:03;26.35;;;15.40;;
19285;SDS011;9776;50.798;6.430;2023-08-17T10:35:32;27.58;;;15.77;;
19285;SDS011;9776;50.798;6.430;2023-08-17T10:37:59;23.58;;;14.82;;
19285;SDS011;9776;50.798;6.430;2023-08-17T10:40:28;26.00;;;16.13;;
19285;SDS011;9776;50.798;6.430;2023-08-17T10:43:02;27.52;;;15.73;;
19285;SDS011;9776;50.798;6.430;2023-08-17T10:45:29;29.17;;;16.40;;
19285;SDS011;9776;50.798;6.430;2023-08-17T10:50:59;27.73;;;16.25;;
19285;SDS011;9776;50.798;6.430;2023-08-17T10:53:36;24.30;;;15.43;;
19285;SDS011;9776;50.798;6.430;2023-08-17T10:56:07;27.92;;;16.70;;
19285;SDS011;9776;50.798;6.430;2023-08-17T10:58:39;27.63;;;16.33;;
19285;SDS011;9776;50.798;6.430;2023-08-17T11:01:07;27.80;;;16.58;;
19285;SDS011;9776;50.798;6.430;2023-08-17T11:03:35;24.00;;;15.50;;
19285;SDS011;9776;50.798;6.430;2023-08-17T11:06:16;29.63;;;16.48;;
19285;SDS011;9776;50.798;6.430;2023-08-17T11:08:53;26.17;;;16.90;;
19285;SDS011;9776;50.798;6.430;2023-08-17T11:11:21;27.40;;;16.55;;
19285;SDS011;9776;50.798;6.430;2023-08-17T11:13:50;24.27;;;15.38;;
19285;SDS011;9776;50.798;6.430;2023-08-17T11:16:19;24.95;;;15.73;;
19285;SDS011;9776;50.798;6.430;2023-08-17T11:18:46;23.83;;;15.00;;
19285;SDS011;9776;50.798;6.430;2023-08-17T11:21:14;27.45;;;15.38;;
19285;SDS011;9776;50.798;6.430;2023-08-17T11:23:41;27.80;;;15.50;;
19285;SDS011;9776;50.798;6.430;2023-08-17T11:26:08;26.30;;;16.25;;
19285;SDS011;9776;50.798;6.430;2023-08-17T11:28:35;24.63;;;15.32;;
19285;SDS011;9776;50.798;6.430;2023-08-17T11:31:05;25.13;;;15.25;;
19285;SDS011;9776;50.798;6.430;2023-08-17T11:33:33;25.52;;;15.30;;
19285;SDS011;9776;50.798;6.430;2023-08-17T11:36:01;25.20;;;14.85;;
19285;SDS011;9776;50.798;6.430;2023-08-17T11:38:30;23.77;;;15.35;;
19285;SDS011;9776;50.798;6.430;2023-08-17T11:40:57;24.35;;;16.10;;
19285;SDS011;9776;50.798;6.430;2023-08-17T11:43:25;22.63;;;15.57;;
19285;SDS011;9776;50.798;6.430;2023-08-17T11:45:51;25.70;;;15.13;;
19285;SDS011;9776;50.798;6.430;2023-08-17T11:48:19;24.40;;;15.60;;
19285;SDS011;9776;50.798;6.430;2023-08-17T11:50:46;25.65;;;15.95;;
19285;SDS011;9776;50.798;6.430;2023-08-17T11:53:14;24.67;;;15.18;;
19285;SDS011;9776;50.798;6.430;2023-08-17T11:55:40;24.63;;;15.73;;
19285;SDS011;9776;50.798;6.430;2023-08-17T11:58:07;26.73;;;15.85;;
19285;SDS011;9776;50.798;6.430;2023-08-17T12:00:34;24.02;;;15.15;;
19285;SDS011;9776;50.798;6.430;2023-08-17T12:03:02;24.83;;;15.07;;
19285;SDS011;9776;50.798;6.430;2023-08-17T12:05:31;24.33;;;15.18;;
19285;SDS011;9776;50.798;6.430;2023-08-17T12:07:59;24.50;;;15.00;;
19285;SDS011;9776;50.798;6.430;2023-08-17T12:10:27;25.23;;;15.68;;
19285;SDS011;9776;50.798;6.430;2023-08-17T12:12:56;26.98;;;15.85;;
19285;SDS011;9776;50.798;6.430;2023-08-17T12:15:23;25.58;;;15.90;;
19285;SDS011;9776;50.798;6.430;2023-08-17T12:17:51;26.60;;;15.93;;
19285;SDS011;9776;50.798;6.430;2023-08-17T12:20:18;24.77;;;14.57;;
19285;SDS011;9776;50.798;6.430;2023-08-17T12:22:47;27.45;;;15.88;;
19285;SDS011;9776;50.798;6.430;2023-08-17T12:25:14;25.83;;;15.52;;
19285;SDS011;9776;50.798;6.430;2023-08-17T12:27:41;25.45;;;16.13;;
19285;SDS011;9776;50.798;6.430;2023-08-17T12:30:11;27.60;;;16.90;;
19285;SDS011;9776;50.798;6.430;2023-08-17T12:32:49;30.88;;;15.82;;
19285;SDS011;9776;50.798;6.430;2023-08-17T12:35:16;22.88;;;14.98;;
19285;SDS011;9776;50.798;6.430;2023-08-17T12:37:44;31.63;;;15.57;;
19285;SDS011;9776;50.798;6.430;2023-08-17T12:40:12;25.23;;;15.43;;
19285;SDS011;9776;50.798;6.430;2023-08-17T12:42:39;25.48;;;15.00;;
19285;SDS011;9776;50.798;6.430;2023-08-17T12:45:05;24.58;;;14.90;;
19285;SDS011;9776;50.798;6.430;2023-08-17T12:47:32;28.60;;;15.98;;
19285;SDS011;9776;50.798;6.430;2023-08-17T12:49:59;26.55;;;16.20;;
19285;SDS011;9776;50.798;6.430;2023-08-17T12:52:26;26.90;;;16.13;;
19285;SDS011;9776;50.798;6.430;2023-08-17T12:54:53;27.80;;;16.23;;
19285;SDS011;9776;50.798;6.430;2023-08-17T12:57:21;25.77;;;15.35;;
19285;SDS011;9776;50.798;6.430;2023-08-17T12:59:49;24.33;;;15.15;;
19285;SDS011;9776;50.798;6.430;2023-08-17T13:02:16;24.98;;;15.25;;
19285;SDS011;9776;50.798;6.430;2023-08-17T13:04:42;23.25;;;14.30;;
19285;SDS011;9776;50.798;6.430;2023-08-17T13:07:09;25.27;;;15.55;;
19285;SDS011;9776;50.798;6.430;2023-08-17T13:09:36;22.48;;;14.57;;
19285;SDS011;9776;50.798;6.430;2023-08-17T13:12:03;23.08;;;15.85;;
19285;SDS011;9776;50.798;6.430;2023-08-17T13:14:31;25.40;;;15.20;;
19285;SDS011;9776;50.798;6.430;2023-08-17T13:16:58;26.30;;;15.15;;
19285;SDS011;9776;50.798;6.430;2023-08-17T13:19:24;25.70;;;16.20;;
19285;SDS011;9776;50.798;6.430;2023-08-17T13:21:51;24.85;;;16.13;;
19285;SDS011;9776;50.798;6.430;2023-08-17T13:24:18;25.08;;;16.55;;
19285;SDS011;9776;50.798;6.430;2023-08-17T13:26:44;27.10;;;16.98;;
19285;SDS011;9776;50.798;6.430;2023-08-17T13:29:11;22.83;;;15.57;;
19285;SDS011;9776;50.798;6.430;2023-08-17T13:31:39;22.38;;;15.00;;
19285;SDS011;9776;50.798;6.430;2023-08-17T13:34:06;22.70;;;15.13;;
19285;SDS011;9776;50.798;6.430;2023-08-17T13:36:32;22.13;;;14.57;;
19285;SDS011;9776;50.798;6.430;2023-08-17T13:38:59;22.05;;;14.60;;
19285;SDS011;9776;50.798;6.430;2023-08-17T13:41:25;25.10;;;14.88;;
19285;SDS011;9776;50.798;6.430;2023-08-17T13:43:52;26.08;;;15.10;;
19285;SDS011;9776;50.798;6.430;2023-08-17T13:46:19;20.73;;;14.68;;
19285;SDS011;9776;50.798;6.430;2023-08-17T13:48:47;28.45;;;15.68;;
19285;SDS011;9776;50.798;6.430;2023-08-17T13:51:13;24.58;;;16.05;;
19285;SDS011;9776;50.798;6.430;2023-08-17T13:53:40;25.58;;;15.82;;
19285;SDS011;9776;50.798;6.430;2023-08-17T13:56:07;22.98;;;15.52;;
19285;SDS011;9776;50.798;6.430;2023-08-17T13:58:34;24.98;;;16.17;;
19285;SDS011;9776;50.798;6.430;2023-08-17T14:01:00;22.25;;;15.50;;
19285;SDS011;9776;50.798;6.430;2023-08-17T14:03:27;22.83;;;15.15;;
19285;SDS011;9776;50.798;6.430;2023-08-17T14:05:55;23.70;;;14.93;;
19285;SDS011;9776;50.798;6.430;2023-08-17T14:08:22;23.10;;;14.82;;
19285;SDS011;9776;50.798;6.430;2023-08-17T14:10:48;23.85;;;14.70;;
19285;SDS011;9776;50.798;6.430;2023-08-17T14:13:16;21.65;;;14.63;;
19285;SDS011;9776;50.798;6.430;2023-08-17T14:15:42;22.73;;;14.82;;
19285;SDS011;9776;50.798;6.430;2023-08-17T14:18:09;23.35;;;14.35;;
19285;SDS011;9776;50.798;6.430;2023-08-17T14:20:36;22.98;;;14.32;;
19285;SDS011;9776;50.798;6.430;2023-08-17T14:23:04;21.92;;;14.35;;
19285;SDS011;9776;50.798;6.430;2023-08-17T14:25:30;21.05;;;14.43;;
19285;SDS011;9776;50.798;6.430;2023-08-17T14:27:57;24.02;;;14.25;;
19285;SDS011;9776;50.798;6.430;2023-08-17T14:30:24;22.98;;;14.15;;
19285;SDS011;9776;50.798;6.430;2023-08-17T14:32:51;22.48;;;14.90;;
19285;SDS011;9776;50.798;6.430;2023-08-17T14:35:18;24.38;;;14.93;;
19285;SDS011;9776;50.798;6.430;2023-08-17T14:37:45;23.65;;;14.88;;
19285;SDS011;9776;50.798;6.430;2023-08-17T14:40:14;23.48;;;14.63;;
19285;SDS011;9776;50.798;6.430;2023-08-17T14:42:50;21.52;;;14.23;;